Time;durP1;ratioP1;P1;durP2;ratioP2;P2;SDS_P1;SDS_P2;PMS_P1;PMS_P2;Temp;Humidity;BMP_temperature;BMP_pressure;BME280_temperature;BME280_humidity;BME280_pressure;Samples;Min_cycle;Max_cycle;Signal;HPM_P1;HPM_P2
2021/12/27 00:00:00;;;;;;;;;;;;;;;;;;;;;
2021/12/27 00:02:59;;;;;;;14.15;6.95;;;;;;;;;;4999792;28;20022;-91
2021/12/27 00:05:37;;;;;;;16.77;6.50;;;;;;;;;;5001174;28;20018;-88
2021/12/27 00:08:14;;;;;;;19.20;8.10;;;;;;;;;;5003455;28;20010;-86
2021/12/27 00:11:24;;;;;;;16.83;7.10;;;;;;;;;;5006151;28;20122;-88
2021/12/27 00:13:51;;;;;;;15.60;7.60;;;;;;;;;;4992165;28;20372;-86
2021/12/27 00:16:23;;;;;;;10.50;5.90;;;;;;;;;;4990908;28;20054;-88
2021/12/27 00:18:52;;;;;;;15.70;7.10;;;;;;;;;;4996444;28;20113;-89
2021/12/27 00:21:20;;;;;;;19.50;8.35;;;;;;;;;;4997418;28;20057;-87
2021/12/27 00:24:05;;;;;;;15.80;6.43;;;;;;;;;;4975668;28;20119;-88
2021/12/27 00:26:36;;;;;;;15.63;7.32;;;;;;;;;;4993217;28;20077;-87
2021/12/27 00:29:05;;;;;;;16.50;6.50;;;;;;;;;;4974860;28;20023;-89
2021/12/27 00:31:34;;;;;;;17.73;7.47;;;;;;;;;;4968172;28;20105;-89
2021/12/27 00:34:03;;;;;;;16.20;7.53;;;;;;;;;;4974099;28;20117;-90
2021/12/27 00:36:32;;;;;;;17.05;8.32;;;;;;;;;;4992064;28;20144;-84
2021/12/27 00:38:58;;;;;;;20.90;7.75;;;;;;;;;;4988238;28;20023;-89
2021/12/27 00:41:24;;;;;;;17.00;7.40;;;;;;;;;;4991242;28;20444;-90
2021/12/27 00:43:50;;;;;;;18.45;7.25;;;;;;;;;;4991509;28;20027;-87
2021/12/27 00:46:15;;;;;;;16.90;8.32;;;;;;;;;;4965574;28;20027;-90
2021/12/27 00:48:41;;;;;;;15.43;7.72;;;;;;;;;;4973783;28;20049;-91
2021/12/27 00:51:10;;;;;;;16.38;7.38;;;;;;;;;;4957297;28;20058;-87
2021/12/27 00:53:46;;;;;;;;;;;;;;;;;;;;;
2021/12/27 00:56:34;;;;;;;15.38;7.40;;;;;;;;;;5002404;28;20034;-85
2021/12/27 00:59:15;;;;;;;19.17;6.97;;;;;;;;;;4989125;28;20133;-89
2021/12/27 01:01:41;;;;;;;12.25;6.97;;;;;;;;;;4993394;28;20038;-87
2021/12/27 01:04:08;;;;;;;13.05;7.47;;;;;;;;;;5008019;28;20081;-88
2021/12/27 01:06:39;;;;;;;19.42;7.95;;;;;;;;;;4999620;28;20136;-88
2021/12/27 01:09:51;;;;;;;19.60;9.20;;;;;;;;;;4995657;28;20034;-89
2021/12/27 01:17:41;;;;;;;17.77;6.65;;;;;;;;;;4994932;28;20038;-88
2021/12/27 01:20:28;;;;;;;15.15;7.18;;;;;;;;;;4989834;28;20026;-85
2021/12/27 01:23:00;;;;;;;22.10;8.70;;;;;;;;;;4976770;28;20207;-88
2021/12/27 01:28:27;;;;;;;16.77;8.25;;;;;;;;;;4967070;28;20041;-91
2021/12/27 01:30:53;;;;;;;13.95;7.65;;;;;;;;;;4963419;28;20116;-89
2021/12/27 01:33:21;;;;;;;14.75;6.97;;;;;;;;;;5008553;28;20018;-87
2021/12/27 01:35:47;;;;;;;16.38;7.47;;;;;;;;;;4983663;28;20038;-89
2021/12/27 01:38:16;;;;;;;18.63;7.38;;;;;;;;;;4996162;28;20035;-86
2021/12/27 01:40:53;;;;;;;13.90;6.20;;;;;;;;;;4974959;28;20062;-90
2021/12/27 01:43:24;;;;;;;14.07;6.40;;;;;;;;;;4989299;28;20034;-91
2021/12/27 01:45:56;;;;;;;14.70;6.88;;;;;;;;;;4977607;28;20045;-89
2021/12/27 01:48:29;;;;;;;18.23;7.85;;;;;;;;;;4993446;28;20069;-88
2021/12/27 01:50:58;;;;;;;17.25;7.25;;;;;;;;;;5009633;28;20525;-89
2021/12/27 01:53:25;;;;;;;15.52;7.28;;;;;;;;;;4980704;28;20055;-89
2021/12/27 01:55:52;;;;;;;17.13;6.88;;;;;;;;;;4996666;28;20026;-90
2021/12/27 01:58:18;;;;;;;17.70;7.95;;;;;;;;;;5014388;28;20183;-89
2021/12/27 02:00:48;;;;;;;15.68;7.80;;;;;;;;;;5008787;28;20014;-87
2021/12/27 02:03:15;;;;;;;14.07;8.10;;;;;;;;;;4992622;28;20257;-90
2021/12/27 02:08:44;;;;;;;16.25;7.03;;;;;;;;;;4999713;28;20562;-89
2021/12/27 02:11:21;;;;;;;19.77;7.55;;;;;;;;;;4982601;28;20453;-90
2021/12/27 02:13:49;;;;;;;17.00;8.23;;;;;;;;;;4994293;28;20026;-89
2021/12/27 02:16:24;;;;;;;19.15;8.20;;;;;;;;;;4988556;28;20042;-92
2021/12/27 02:18:53;;;;;;;15.32;7.15;;;;;;;;;;4977188;28;20041;-87
2021/12/27 02:21:26;;;;;;;23.52;8.50;;;;;;;;;;4996087;28;20022;-89
2021/12/27 02:23:56;;;;;;;16.73;7.80;;;;;;;;;;4996784;28;20050;-87
2021/12/27 02:26:24;;;;;;;15.93;7.57;;;;;;;;;;4988364;28;20120;-89
2021/12/27 02:28:50;;;;;;;20.58;9.02;;;;;;;;;;4961884;28;20054;-86
2021/12/27 02:31:17;;;;;;;15.85;7.90;;;;;;;;;;4989611;28;20033;-93
2021/12/27 02:33:45;;;;;;;18.75;7.47;;;;;;;;;;4964019;28;20037;-89
2021/12/27 02:36:12;;;;;;;20.35;7.85;;;;;;;;;;4978100;28;20042;-91
2021/12/27 02:38:40;;;;;;;15.43;7.40;;;;;;;;;;4989618;28;20108;-88
2021/12/27 02:41:26;;;;;;;14.85;6.60;;;;;;;;;;4987678;28;20030;-88
2021/12/27 02:43:58;;;;;;;22.58;10.45;;;;;;;;;;4990503;28;20050;-91
2021/12/27 02:46:29;;;;;;;18.63;8.68;;;;;;;;;;4993692;28;20091;-90
2021/12/27 02:48:55;;;;;;;16.65;9.02;;;;;;;;;;4985364;28;20121;-88
2021/12/27 02:51:23;;;;;;;17.92;8.70;;;;;;;;;;4973167;28;20133;-88
2021/12/27 02:53:54;;;;;;;19.75;9.07;;;;;;;;;;5000900;28;20050;-89
2021/12/27 02:56:22;;;;;;;18.80;7.97;;;;;;;;;;4986203;28;20039;-88
2021/12/27 02:58:51;;;;;;;18.60;8.57;;;;;;;;;;4978119;28;20022;-88
2021/12/27 03:01:18;;;;;;;21.85;8.93;;;;;;;;;;4996032;28;20018;-86
2021/12/27 03:03:45;;;;;;;19.05;8.70;;;;;;;;;;4989642;28;20058;-87
2021/12/27 03:06:11;;;;;;;17.08;8.32;;;;;;;;;;4988390;28;20105;-88
2021/12/27 03:08:49;;;;;;;20.00;9.38;;;;;;;;;;4974483;28;20103;-88
2021/12/27 03:11:23;;;;;;;18.17;8.27;;;;;;;;;;4990998;28;20097;-88
2021/12/27 03:13:51;;;;;;;24.67;9.73;;;;;;;;;;5005839;28;20034;-90
2021/12/27 03:16:19;;;;;;;21.42;9.05;;;;;;;;;;4990447;28;20470;-89
2021/12/27 03:18:54;;;;;;;23.10;10.07;;;;;;;;;;4991434;28;20037;-86
2021/12/27 03:21:20;;;;;;;16.40;8.68;;;;;;;;;;4975135;28;20026;-89
2021/12/27 03:23:47;;;;;;;20.08;8.98;;;;;;;;;;4986616;28;20093;-86
2021/12/27 03:26:22;;;;;;;18.13;9.10;;;;;;;;;;5004125;28;20983;-89
2021/12/27 03:28:51;;;;;;;26.52;9.95;;;;;;;;;;4992921;28;20038;-91
2021/12/27 03:31:19;;;;;;;23.10;9.05;;;;;;;;;;4979334;28;20349;-90
2021/12/27 03:33:48;;;;;;;20.98;8.27;;;;;;;;;;4996464;28;20042;-88
2021/12/27 03:36:28;;;;;;;18.20;8.80;;;;;;;;;;5000854;28;20034;-87
2021/12/27 03:38:54;;;;;;;19.10;9.15;;;;;;;;;;5007862;28;20022;-89
2021/12/27 03:41:43;;;;;;;22.80;10.25;;;;;;;;;;4979791;28;20042;-90
2021/12/27 03:44:16;;;;;;;20.10;10.10;;;;;;;;;;4978640;28;20030;-89
2021/12/27 03:47:17;;;;;;;24.35;9.75;;;;;;;;;;4991963;28;20038;-90
2021/12/27 03:49:54;;;;;;;17.98;9.00;;;;;;;;;;5004697;28;20057;-92
2021/12/27 03:52:21;;;;;;;17.90;8.88;;;;;;;;;;4994260;28;20022;-89
2021/12/27 03:55:08;;;;;;;18.85;7.57;;;;;;;;;;4994167;28;20034;-91
2021/12/27 03:57:36;;;;;;;22.73;9.05;;;;;;;;;;4987875;28;20038;-90
2021/12/27 04:02:55;;;;;;;19.58;8.55;;;;;;;;;;4986169;28;20042;-89
2021/12/27 04:05:28;;;;;;;21.48;10.75;;;;;;;;;;4987492;28;20162;-87
2021/12/27 04:08:00;;;;;;;21.55;9.20;;;;;;;;;;4992372;28;20030;-90
2021/12/27 04:10:37;;;;;;;21.30;10.00;;;;;;;;;;5010202;28;20046;-89
2021/12/27 04:13:03;;;;;;;21.77;9.45;;;;;;;;;;4985106;28;20061;-89
2021/12/27 04:15:35;;;;;;;18.75;10.13;;;;;;;;;;4999967;28;20045;-89
2021/12/27 04:18:02;;;;;;;22.10;10.27;;;;;;;;;;4999493;28;20035;-88
2021/12/27 04:20:27;;;;;;;20.10;9.57;;;;;;;;;;5008015;28;20045;-88
2021/12/27 04:22:53;;;;;;;22.27;9.30;;;;;;;;;;4995074;28;20368;-88
2021/12/27 04:25:20;;;;;;;22.65;9.50;;;;;;;;;;4991774;28;20033;-88
2021/12/27 04:27:46;;;;;;;17.77;9.77;;;;;;;;;;4976204;28;20027;-88
2021/12/27 04:30:37;;;;;;;16.60;8.75;;;;;;;;;;4996576;28;20038;-89
2021/12/27 04:33:03;;;;;;;22.92;9.55;;;;;;;;;;4983816;28;20057;-89
2021/12/27 04:35:31;;;;;;;20.88;9.82;;;;;;;;;;4989833;28;20355;-88
2021/12/27 04:37:57;;;;;;;27.10;9.68;;;;;;;;;;4974301;28;20054;-87
2021/12/27 04:40:28;;;;;;;19.90;9.23;;;;;;;;;;4993746;28;20023;-87
2021/12/27 04:43:00;;;;;;;21.13;10.27;;;;;;;;;;5007672;28;20106;-92
2021/12/27 04:45:26;;;;;;;22.45;10.30;;;;;;;;;;4975216;28;20033;-87
2021/12/27 04:47:55;;;;;;;24.77;9.88;;;;;;;;;;4992396;28;20064;-88
2021/12/27 04:50:25;;;;;;;21.90;9.38;;;;;;;;;;4974333;28;20039;-91
2021/12/27 04:52:53;;;;;;;18.63;9.38;;;;;;;;;;4975052;28;20051;-90
2021/12/27 04:55:30;;;;;;;17.58;9.57;;;;;;;;;;4974260;28;20030;-87
2021/12/27 04:57:56;;;;;;;23.83;11.15;;;;;;;;;;4958135;28;20085;-89
2021/12/27 05:00:24;;;;;;;23.58;10.98;;;;;;;;;;4985643;28;20023;-88
2021/12/27 05:02:50;;;;;;;20.85;10.52;;;;;;;;;;4979847;28;20101;-86
2021/12/27 05:05:16;;;;;;;22.17;10.07;;;;;;;;;;4993001;28;20042;-86
2021/12/27 05:07:44;;;;;;;17.25;8.40;;;;;;;;;;4978799;28;20031;-88
2021/12/27 05:10:10;;;;;;;22.20;9.77;;;;;;;;;;4993235;28;20181;-89
2021/12/27 05:12:44;;;;;;;23.60;9.73;;;;;;;;;;4992891;28;20026;-90
2021/12/27 05:15:13;;;;;;;20.90;9.00;;;;;;;;;;4993247;28;20022;-87
2021/12/27 05:17:51;;;;;;;26.35;11.20;;;;;;;;;;4992546;28;20153;-89
2021/12/27 05:20:18;;;;;;;20.73;10.20;;;;;;;;;;4996667;28;20030;-89
2021/12/27 05:22:46;;;;;;;20.80;11.02;;;;;;;;;;4975244;28;20022;-90
2021/12/27 05:25:16;;;;;;;17.23;9.48;;;;;;;;;;4995687;28;20474;-90
2021/12/27 05:27:43;;;;;;;21.45;10.65;;;;;;;;;;4992952;28;20014;-90
2021/12/27 05:30:09;;;;;;;21.33;10.40;;;;;;;;;;4992363;28;20113;-89
2021/12/27 05:32:49;;;;;;;21.42;10.23;;;;;;;;;;4992890;28;20022;-85
2021/12/27 05:35:16;;;;;;;25.60;11.48;;;;;;;;;;4996028;28;20031;-85
2021/12/27 05:37:43;;;;;;;27.60;11.98;;;;;;;;;;4978236;28;20023;-88
2021/12/27 05:40:22;;;;;;;22.38;10.27;;;;;;;;;;4993926;28;20032;-88
2021/12/27 05:42:50;;;;;;;29.90;10.93;;;;;;;;;;5008212;28;20121;-91
2021/12/27 05:45:16;;;;;;;23.50;10.30;;;;;;;;;;4978438;28;20389;-87
2021/12/27 05:47:43;;;;;;;20.40;9.45;;;;;;;;;;4975069;28;20041;-90
2021/12/27 05:50:09;;;;;;;22.58;9.75;;;;;;;;;;4978838;28;20109;-89
2021/12/27 05:52:36;;;;;;;24.92;12.40;;;;;;;;;;4995526;28;20113;-88
2021/12/27 05:55:11;;;;;;;26.60;10.35;;;;;;;;;;4980800;28;20118;-90
2021/12/27 05:57:50;;;;;;;31.45;10.80;;;;;;;;;;4996204;28;20050;-89
2021/12/27 06:00:16;;;;;;;25.80;12.13;;;;;;;;;;4996234;28;20057;-91
2021/12/27 06:02:42;;;;;;;25.25;10.88;;;;;;;;;;4992107;28;20033;-92
2021/12/27 06:05:08;;;;;;;24.25;11.90;;;;;;;;;;4981294;28;20026;-88
2021/12/27 06:07:38;;;;;;;25.73;12.18;;;;;;;;;;4994410;28;20034;-91
2021/12/27 06:10:04;;;;;;;21.25;10.57;;;;;;;;;;4994646;28;20034;-88
2021/12/27 06:12:33;;;;;;;31.48;12.73;;;;;;;;;;4974356;28;20089;-85
2021/12/27 06:15:03;;;;;;;27.45;13.68;;;;;;;;;;4988562;28;20038;-86
2021/12/27 06:17:30;;;;;;;29.10;11.93;;;;;;;;;;5023502;28;20088;-89
2021/12/27 06:19:55;;;;;;;34.63;12.93;;;;;;;;;;5005949;28;20701;-88
2021/12/27 06:22:24;;;;;;;32.30;12.95;;;;;;;;;;4977069;28;20148;-89
2021/12/27 06:24:52;;;;;;;30.75;12.77;;;;;;;;;;4984509;28;20268;-89
2021/12/27 06:27:19;;;;;;;31.58;13.10;;;;;;;;;;4993462;28;20075;-89
2021/12/27 06:29:46;;;;;;;36.72;14.38;;;;;;;;;;4978908;28;20051;-89
2021/12/27 06:32:13;;;;;;;26.80;12.43;;;;;;;;;;5015952;28;20018;-90
2021/12/27 06:34:44;;;;;;;29.48;12.05;;;;;;;;;;4993444;28;20105;-85
2021/12/27 06:37:13;;;;;;;37.42;13.40;;;;;;;;;;4964941;28;20065;-87
2021/12/27 06:39:41;;;;;;;31.92;13.90;;;;;;;;;;4983265;28;20382;-90
2021/12/27 06:42:07;;;;;;;44.13;14.98;;;;;;;;;;4982166;28;20026;-92
2021/12/27 06:44:33;;;;;;;34.83;14.00;;;;;;;;;;4992156;28;20045;-91
2021/12/27 06:47:02;;;;;;;31.55;15.32;;;;;;;;;;4997094;28;20026;-87
2021/12/27 06:49:39;;;;;;;;;;;;;;;;;;;;;
2021/12/27 06:52:06;;;;;;;32.50;14.55;;;;;;;;;;4988160;28;20587;-91
2021/12/27 06:54:34;;;;;;;32.00;12.55;;;;;;;;;;4980388;28;20022;-90
2021/12/27 06:57:18;;;;;;;31.10;15.00;;;;;;;;;;4990995;28;20030;-90
2021/12/27 06:59:43;;;;;;;;;;;;;;;;;;5006582;28;20031;-93
2021/12/27 07:02:20;;;;;;;35.20;12.52;;;;;;;;;;4992299;28;19922;-91
2021/12/27 07:04:50;;;;;;;28.25;12.52;;;;;;;;;;4989698;28;20034;-90
2021/12/27 07:07:15;;;;;;;32.72;14.18;;;;;;;;;;4974530;28;20082;-90
2021/12/27 07:09:41;;;;;;;33.47;13.43;;;;;;;;;;4992622;28;20064;-90
2021/12/27 07:12:10;;;;;;;46.20;16.05;;;;;;;;;;4990030;28;20073;-90
2021/12/27 07:14:43;;;;;;;33.13;13.30;;;;;;;;;;4991048;28;21494;-88
2021/12/27 07:17:19;;;;;;;46.05;14.88;;;;;;;;;;4993776;28;20125;-89
2021/12/27 07:30:44;;;;;;;34.65;13.27;;;;;;;;;;4948651;28;20464;-89
2021/12/27 07:37:04;;;;;;;39.28;14.52;;;;;;;;;;4930865;28;20325;-90
2021/12/27 07:40:06;;;;;;;39.65;14.65;;;;;;;;;;4995675;28;20089;-87
2021/12/27 07:54:34;;;;;;;29.83;12.80;;;;;;;;;;4932649;29;20417;-88
2021/12/27 08:04:24;;;;;;;39.78;17.05;;;;;;;;;;4884336;29;20490;-88
2021/12/27 08:06:56;;;;;;;35.92;14.73;;;;;;;;;;4929914;29;20024;-89
2021/12/27 08:09:24;;;;;;;36.33;15.80;;;;;;;;;;4960668;28;20042;-91
2021/12/27 08:11:52;;;;;;;38.72;14.98;;;;;;;;;;4958870;28;20050;-90
2021/12/27 08:14:18;;;;;;;39.92;14.68;;;;;;;;;;4991598;28;20034;-86
2021/12/27 08:16:45;;;;;;;39.30;15.65;;;;;;;;;;4992874;28;20085;-89
2021/12/27 08:19:13;;;;;;;36.40;14.68;;;;;;;;;;4994678;28;20182;-90
2021/12/27 08:21:51;;;;;;;39.03;14.68;;;;;;;;;;4990314;28;20022;-90
2021/12/27 08:24:17;;;;;;;37.25;14.57;;;;;;;;;;4989413;28;20033;-87
2021/12/27 08:26:54;;;;;;;41.78;15.40;;;;;;;;;;4976230;28;20073;-89
2021/12/27 08:29:56;;;;;;;40.20;15.23;;;;;;;;;;4983959;28;20050;-88
2021/12/27 08:36:11;;;;;;;42.15;14.20;;;;;;;;;;4996226;28;20052;-88
2021/12/27 08:38:47;;;;;;;36.90;14.48;;;;;;;;;;4998092;28;20053;-88
2021/12/27 08:41:39;;;;;;;36.50;14.98;;;;;;;;;;5009982;28;20069;-88
2021/12/27 08:44:10;;;;;;;34.10;13.18;;;;;;;;;;4994043;28;20026;-88
2021/12/27 08:53:40;;;;;;;31.58;14.00;;;;;;;;;;4990872;28;20042;-89
2021/12/27 08:56:05;;;;;;;32.03;13.88;;;;;;;;;;5008868;28;20045;-89
2021/12/27 08:58:31;;;;;;;43.50;14.75;;;;;;;;;;4978061;28;20014;-91
2021/12/27 09:00:57;;;;;;;42.58;14.35;;;;;;;;;;4973127;28;20034;-87
2021/12/27 09:06:38;;;;;;;45.53;14.85;;;;;;;;;;5004531;28;20112;-87
2021/12/27 09:09:10;;;;;;;37.20;14.07;;;;;;;;;;4986787;28;20019;-87
2021/12/27 09:11:56;;;;;;;35.38;14.38;;;;;;;;;;5012512;28;20053;-92
2021/12/27 09:14:22;;;;;;;37.70;14.32;;;;;;;;;;4993141;28;20037;-90
2021/12/27 09:16:54;;;;;;;36.92;13.73;;;;;;;;;;4993548;28;20019;-87
2021/12/27 09:19:23;;;;;;;48.35;16.27;;;;;;;;;;4994025;28;20022;-88
2021/12/27 09:21:48;;;;;;;37.72;14.23;;;;;;;;;;4995564;28;20064;-89
2021/12/27 09:24:56;;;;;;;41.63;14.35;;;;;;;;;;4987318;28;20047;-89
2021/12/27 09:27:28;;;;;;;45.05;14.98;;;;;;;;;;4993938;28;20178;-90
2021/12/27 09:30:17;;;;;;;36.33;13.85;;;;;;;;;;4968276;28;20034;-89
2021/12/27 09:32:45;;;;;;;49.78;14.50;;;;;;;;;;4986191;28;20368;-89
2021/12/27 09:35:39;;;;;;;43.08;13.98;;;;;;;;;;5001031;28;20042;-89
2021/12/27 09:38:05;;;;;;;42.15;15.40;;;;;;;;;;4974099;28;20042;-89
2021/12/27 09:40:31;;;;;;;32.60;13.70;;;;;;;;;;4977195;28;20030;-89
2021/12/27 09:42:58;;;;;;;31.05;13.65;;;;;;;;;;4993065;28;20043;-87
2021/12/27 09:45:23;;;;;;;40.08;15.05;;;;;;;;;;4993086;28;20055;-86
2021/12/27 09:47:51;;;;;;;41.38;15.07;;;;;;;;;;5006819;28;20116;-89
2021/12/27 09:50:30;;;;;;;44.88;14.02;;;;;;;;;;4974165;28;20030;-89
2021/12/27 09:52:57;;;;;;;44.13;16.05;;;;;;;;;;4993256;28;20305;-90
2021/12/27 09:55:27;;;;;;;37.88;14.65;;;;;;;;;;4994202;28;20278;-89
2021/12/27 09:57:53;;;;;;;45.28;14.40;;;;;;;;;;5011696;28;20026;-91
2021/12/27 10:00:18;;;;;;;31.70;13.80;;;;;;;;;;4981154;28;20169;-88
2021/12/27 10:02:49;;;;;;;38.13;13.68;;;;;;;;;;5006392;28;20030;-89
2021/12/27 10:05:20;;;;;;;34.60;13.50;;;;;;;;;;4994417;28;20072;-87
2021/12/27 10:07:46;;;;;;;38.30;13.43;;;;;;;;;;4985358;28;20453;-90
2021/12/27 10:10:27;;;;;;;28.80;12.45;;;;;;;;;;4991556;28;20030;-87
2021/12/27 10:13:16;;;;;;;33.33;12.77;;;;;;;;;;5009130;28;20383;-91
2021/12/27 10:15:44;;;;;;;37.97;12.75;;;;;;;;;;4992612;28;20422;-88
2021/12/27 10:18:14;;;;;;;26.40;12.15;;;;;;;;;;5002143;28;20030;-89
2021/12/27 10:20:43;;;;;;;31.35;13.15;;;;;;;;;;4991935;28;20064;-90
2021/12/27 10:23:09;;;;;;;34.70;14.38;;;;;;;;;;4976225;28;20031;-91
2021/12/27 10:25:36;;;;;;;28.95;11.70;;;;;;;;;;4991462;28;20041;-90
2021/12/27 10:28:03;;;;;;;37.72;12.50;;;;;;;;;;4971443;28;20034;-87
2021/12/27 10:30:30;;;;;;;43.22;13.60;;;;;;;;;;4989264;28;20038;-87
2021/12/27 10:33:18;;;;;;;36.28;13.50;;;;;;;;;;4990177;28;20411;-90
2021/12/27 10:35:58;;;;;;;34.67;12.30;;;;;;;;;;4987240;28;20041;-88
2021/12/27 10:39:03;;;;;;;33.60;12.13;;;;;;;;;;5007179;28;20037;-89
2021/12/27 11:00:00;;;;;;;38.63;13.98;;;;;;;;;;4966341;28;20045;-87
2021/12/27 11:35:00;;;;;;;45.97;14.07;;;;;;;;;;4809747;29;20467;-88
2021/12/27 11:41:46;;;;;;;42.13;14.27;;;;;;;;;;4811069;29;20094;-87
2021/12/27 11:44:34;;;;;;;53.50;13.25;;;;;;;;;;4804664;29;20053;-89
2021/12/27 11:47:11;;;;;;;42.60;14.27;;;;;;;;;;4809380;29;20050;-87
2021/12/27 11:50:03;;;;;;;44.72;14.00;;;;;;;;;;4807394;29;20141;-86
2021/12/27 11:52:47;;;;;;;52.08;14.55;;;;;;;;;;4859353;29;20383;-88
2021/12/27 11:55:22;;;;;;;41.38;15.18;;;;;;;;;;4886974;29;20044;-88
2021/12/27 11:57:50;;;;;;;72.20;15.55;;;;;;;;;;4934009;28;20035;-88
2021/12/27 12:00:31;;;;;;;44.78;15.98;;;;;;;;;;4970682;28;20503;-88
2021/12/27 12:03:08;;;;;;;56.90;14.90;;;;;;;;;;4960183;28;20031;-86
2021/12/27 12:05:51;;;;;;;48.90;15.48;;;;;;;;;;4945413;28;20030;-86
2021/12/27 12:08:48;;;;;;;41.22;14.30;;;;;;;;;;4938408;28;20038;-87
2021/12/27 12:11:13;;;;;;;63.08;14.75;;;;;;;;;;4971054;28;20440;-86
2021/12/27 12:14:05;;;;;;;55.55;16.42;;;;;;;;;;4962051;28;20031;-86
2021/12/27 12:16:49;;;;;;;39.58;13.38;;;;;;;;;;4975063;28;20058;-87
2021/12/27 12:19:15;;;;;;;40.33;14.23;;;;;;;;;;4976610;28;20470;-86
2021/12/27 12:21:51;;;;;;;37.83;14.02;;;;;;;;;;4976147;28;20085;-84
2021/12/27 12:24:23;;;;;;;37.83;14.20;;;;;;;;;;5004573;28;20034;-86
2021/12/27 12:26:55;;;;;;;50.97;15.32;;;;;;;;;;4989892;28;20034;-86
2021/12/27 12:29:23;;;;;;;42.17;14.15;;;;;;;;;;4975793;28;20351;-86
2021/12/27 12:31:59;;;;;;;41.50;13.18;;;;;;;;;;4989243;28;20136;-88
2021/12/27 12:34:38;;;;;;;40.00;14.68;;;;;;;;;;4988003;28;20083;-89
2021/12/27 12:37:25;;;;;;;43.50;14.10;;;;;;;;;;4989294;28;20043;-88
2021/12/27 12:43:18;;;;;;;48.47;14.57;;;;;;;;;;4997626;28;20068;-87
2021/12/27 12:46:17;;;;;;;46.08;13.77;;;;;;;;;;4994892;28;20060;-85
2021/12/27 12:48:57;;;;;;;53.10;14.50;;;;;;;;;;4997208;28;20069;-84
2021/12/27 12:51:30;;;;;;;48.65;14.20;;;;;;;;;;4995903;28;20038;-85
2021/12/27 12:53:56;;;;;;;45.67;14.48;;;;;;;;;;4994883;28;20411;-88
2021/12/27 13:04:05;;;;;;;;;;;;;;;;;;;;;
2021/12/27 13:06:59;;;;;;;44.90;13.82;;;;;;;;;;4965747;28;20046;-87
2021/12/27 13:13:04;;;;;;;50.50;15.32;;;;;;;;;;4968737;28;20070;-85
2021/12/27 13:19:12;;;;;;;47.15;16.30;;;;;;;;;;4960096;28;20081;-86
2021/12/27 13:21:41;;;;;;;49.38;15.43;;;;;;;;;;4939478;28;20118;-85
2021/12/27 13:24:07;;;;;;;52.35;17.40;;;;;;;;;;4941361;28;20085;-84
2021/12/27 13:26:32;;;;;;;48.85;14.35;;;;;;;;;;4956044;28;20071;-87
2021/12/27 13:29:04;;;;;;;59.70;15.95;;;;;;;;;;4953707;28;20051;-85
2021/12/27 13:31:32;;;;;;;61.05;16.60;;;;;;;;;;4955620;28;20114;-90
2021/12/27 13:34:07;;;;;;;58.67;15.85;;;;;;;;;;4965644;28;20084;-86
2021/12/27 13:36:43;;;;;;;43.90;14.50;;;;;;;;;;4955052;28;20042;-88
2021/12/27 13:39:20;;;;;;;47.65;16.98;;;;;;;;;;4988825;28;20033;-87
2021/12/27 13:41:50;;;;;;;50.90;14.98;;;;;;;;;;4988204;28;20030;-86
2021/12/27 13:44:26;;;;;;;45.70;14.13;;;;;;;;;;4988179;28;20044;-86
2021/12/27 13:46:56;;;;;;;63.13;17.65;;;;;;;;;;4986323;28;20031;-89
2021/12/27 13:49:23;;;;;;;60.83;16.90;;;;;;;;;;4987781;28;20356;-84
2021/12/27 13:51:58;;;;;;;62.28;15.00;;;;;;;;;;4969499;28;20093;-86
2021/12/27 13:54:25;;;;;;;50.63;16.00;;;;;;;;;;4988173;28;20360;-86
2021/12/27 13:57:00;;;;;;;44.75;15.77;;;;;;;;;;4968898;28;20137;-86
2021/12/27 13:59:34;;;;;;;49.75;14.95;;;;;;;;;;5001283;28;20046;-86
2021/12/27 14:02:02;;;;;;;61.63;15.20;;;;;;;;;;4973099;28;20052;-87
2021/12/27 14:04:30;;;;;;;90.28;19.63;;;;;;;;;;4981789;28;20030;-89
2021/12/27 14:06:57;;;;;;;65.72;17.67;;;;;;;;;;4988407;28;20109;-88
2021/12/27 14:09:45;;;;;;;;;;;;;;;;;;;;;
2021/12/27 14:12:25;;;;;;;59.40;17.17;;;;;;;;;;4991416;28;20030;-86
2021/12/27 14:15:01;;;;;;;71.40;15.73;;;;;;;;;;4987933;28;20121;-84
2021/12/27 14:18:20;;;;;;;70.47;17.40;;;;;;;;;;4986563;28;20034;-85
2021/12/27 14:21:50;;;;;;;61.08;16.88;;;;;;;;;;4947964;29;20130;-85
2021/12/27 14:28:45;;;;;;;62.05;17.67;;;;;;;;;;4950301;28;20037;-84
2021/12/27 14:35:02;;;;;;;58.58;17.25;;;;;;;;;;4913301;29;20089;-87
2021/12/27 14:37:30;;;;;;;68.07;15.93;;;;;;;;;;4926504;29;20381;-87
2021/12/27 14:39:57;;;;;;;56.30;16.52;;;;;;;;;;4953159;28;20125;-87
2021/12/27 14:42:25;;;;;;;70.70;18.05;;;;;;;;;;4950279;28;20631;-87
2021/12/27 14:44:52;;;;;;;56.22;17.30;;;;;;;;;;4901123;29;20054;-85
2021/12/27 14:47:19;;;;;;;66.38;19.85;;;;;;;;;;4936407;28;21767;-87
2021/12/27 14:49:54;;;;;;;71.70;19.58;;;;;;;;;;4918494;29;20164;-88
2021/12/27 14:52:46;;;;;;;61.35;17.98;;;;;;;;;;4932454;29;20043;-87
2021/12/27 14:55:45;;;;;;;57.00;17.85;;;;;;;;;;4929974;29;20043;-89
2021/12/27 14:58:11;;;;;;;79.78;21.75;;;;;;;;;;4954106;28;20053;-85
2021/12/27 15:00:41;;;;;;;83.50;20.40;;;;;;;;;;4980506;28;20067;-88
2021/12/27 15:03:22;;;;;;;74.50;20.75;;;;;;;;;;4968230;28;20102;-89
2021/12/27 15:06:33;;;;;;;71.43;18.10;;;;;;;;;;4971285;28;20038;-87
2021/12/27 15:09:53;;;;;;;;;;;;;;;;;;;;;
2021/12/27 15:13:35;;;;;;;;;;;;;;;;;;;;;
2021/12/27 15:34:16;;;;;;;46.40;17.58;;;;;;;;;;4861318;29;20076;-87
2021/12/27 15:36:44;;;;;;;70.07;20.25;;;;;;;;;;4906093;29;20107;-87
2021/12/27 15:39:11;;;;;;;62.80;17.80;;;;;;;;;;4926371;29;20027;-86
2021/12/27 15:41:36;;;;;;;67.55;18.55;;;;;;;;;;4912408;29;20032;-88
2021/12/27 15:44:05;;;;;;;76.45;19.20;;;;;;;;;;4917351;29;20046;-87
2021/12/27 15:46:33;;;;;;;53.63;18.35;;;;;;;;;;4919563;29;20031;-88
2021/12/27 15:49:01;;;;;;;61.45;16.80;;;;;;;;;;4920859;29;20125;-89
2021/12/27 15:51:30;;;;;;;59.45;18.20;;;;;;;;;;4946062;29;20023;-86
2021/12/27 15:53:59;;;;;;;71.07;19.92;;;;;;;;;;4931465;29;20031;-87
2021/12/27 15:56:39;;;;;;;54.53;16.48;;;;;;;;;;4933148;29;20536;-85
2021/12/27 15:59:04;;;;;;;62.67;19.83;;;;;;;;;;4925383;29;20031;-87
2021/12/27 16:01:32;;;;;;;65.43;19.40;;;;;;;;;;4943468;28;20031;-89
2021/12/27 16:04:12;;;;;;;54.85;18.55;;;;;;;;;;4927287;29;20052;-88
2021/12/27 16:07:07;;;;;;;74.75;20.52;;;;;;;;;;4929838;29;20038;-86
2021/12/27 16:09:44;;;;;;;51.40;19.25;;;;;;;;;;4915243;29;20051;-89
2021/12/27 16:12:23;;;;;;;59.53;23.33;;;;;;;;;;4935294;29;20039;-89
2021/12/27 16:18:12;;;;;;;59.05;18.13;;;;;;;;;;4950073;28;20126;-90
2021/12/27 16:21:29;;;;;;;60.38;18.35;;;;;;;;;;4930326;29;20122;-89
2021/12/27 16:24:15;;;;;;;51.05;17.00;;;;;;;;;;4895903;29;20173;-90
2021/12/27 16:27:02;;;;;;;48.58;17.25;;;;;;;;;;4942340;29;20102;-88
2021/12/27 16:29:34;;;;;;;61.05;17.48;;;;;;;;;;4927305;29;20071;-90
2021/12/27 16:32:02;;;;;;;47.70;17.85;;;;;;;;;;4928068;29;20035;-90
2021/12/27 16:34:31;;;;;;;73.97;20.23;;;;;;;;;;4902930;29;20061;-90
2021/12/27 16:37:03;;;;;;;55.80;17.33;;;;;;;;;;4929216;29;20520;-87
2021/12/27 16:39:37;;;;;;;53.20;17.70;;;;;;;;;;4948246;28;20035;-89
2021/12/27 16:42:08;;;;;;;53.17;17.20;;;;;;;;;;4947723;28;20057;-90
2021/12/27 16:44:35;;;;;;;53.40;19.80;;;;;;;;;;4964648;28;20682;-89
2021/12/27 16:47:00;;;;;;;52.42;15.88;;;;;;;;;;4948288;29;20039;-88
2021/12/27 16:49:26;;;;;;;50.97;16.35;;;;;;;;;;4948984;28;20681;-89
2021/12/27 16:51:52;;;;;;;53.60;15.93;;;;;;;;;;4965854;28;20126;-87
2021/12/27 16:54:19;;;;;;;37.45;14.77;;;;;;;;;;4948173;29;20065;-89
2021/12/27 16:56:45;;;;;;;54.00;17.73;;;;;;;;;;4933288;29;20110;-88
2021/12/27 16:59:11;;;;;;;49.95;17.75;;;;;;;;;;4936690;29;20046;-89
2021/12/27 17:01:37;;;;;;;50.70;16.92;;;;;;;;;;4953379;28;20027;-90
2021/12/27 17:04:04;;;;;;;41.47;15.82;;;;;;;;;;4942140;28;20345;-88
2021/12/27 17:06:30;;;;;;;50.00;17.65;;;;;;;;;;4960707;28;20037;-89
2021/12/27 17:08:56;;;;;;;51.08;17.83;;;;;;;;;;4957408;28;20171;-88
2021/12/27 17:11:26;;;;;;;52.60;18.75;;;;;;;;;;4970463;28;20046;-88
2021/12/27 17:14:26;;;;;;;40.47;16.15;;;;;;;;;;4966345;28;20054;-88
2021/12/27 17:16:54;;;;;;;50.40;17.02;;;;;;;;;;4937953;28;20095;-90
2021/12/27 17:19:30;;;;;;;36.13;14.45;;;;;;;;;;4940522;28;20099;-89
2021/12/27 17:22:29;;;;;;;51.67;17.05;;;;;;;;;;4911915;29;20055;-88
2021/12/27 17:24:59;;;;;;;44.97;16.98;;;;;;;;;;4892052;29;20058;-89
2021/12/27 17:27:53;;;;;;;49.92;17.85;;;;;;;;;;4891188;29;20247;-90
2021/12/27 17:30:58;;;;;;;51.25;17.70;;;;;;;;;;4919700;29;20040;-87
2021/12/27 17:33:27;;;;;;;45.10;17.83;;;;;;;;;;4934218;29;20031;-89
2021/12/27 17:35:55;;;;;;;45.55;16.88;;;;;;;;;;4916070;29;20464;-89
2021/12/27 17:38:21;;;;;;;38.33;16.10;;;;;;;;;;4899248;29;20125;-89
2021/12/27 17:41:13;;;;;;;46.22;18.90;;;;;;;;;;4895855;29;20091;-87
2021/12/27 17:44:06;;;;;;;34.72;13.23;;;;;;;;;;4884199;29;20037;-87
2021/12/27 17:47:03;;;;;;;42.88;15.50;;;;;;;;;;4909450;29;20070;-88
2021/12/27 17:49:37;;;;;;;40.72;15.95;;;;;;;;;;4902679;29;20047;-90